Time;durP1;ratioP1;P1;durP2;ratioP2;P2;SDS_P1;SDS_P2;PMS_P1;PMS_P2;Temp;Humidity;BMP_temperature;BMP_pressure;BME280_temperature;BME280_humidity;BME280_pressure;Samples;Min_cycle;Max_cycle;Signal;HPM_P1;HPM_P2
2022/09/24 00:02:20;;;;;;;10.37;7.10;;;11.60;57.50;;;;;;5025172;28;20428;-69
2022/09/24 00:04:50;;;;;;;12.10;7.17;;;11.50;68.90;;;;;;5024827;28;20479;-69
2022/09/24 00:07:19;;;;;;;17.23;7.33;;;11.50;75.40;;;;;;5012974;28;20528;-69
2022/09/24 00:09:48;;;;;;;8.70;7.77;;;11.50;86.80;;;;;;5026706;28;20431;-70
2022/09/24 00:12:17;;;;;;;7.93;7.10;;;11.40;91.20;;;;;;5020738;28;20433;-70
2022/09/24 00:14:46;;;;;;;18.00;7.23;;;11.40;97.40;;;;;;5030508;28;20460;-70
2022/09/24 00:17:14;;;;;;;9.10;8.00;;;11.30;99.90;;;;;;5009839;28;20796;-69
2022/09/24 00:19:43;;;;;;;7.50;6.70;;;11.30;99.90;;;;;;5024390;28;20905;-69
2022/09/24 00:22:13;;;;;;;11.97;7.50;;;11.30;99.90;;;;;;5020890;28;20408;-69
2022/09/24 00:27:33;;;;;;;9.27;7.17;;;11.20;99.90;;;;;;4961830;28;20451;-69
2022/09/24 00:30:01;;;;;;;8.40;7.60;;;11.20;99.90;;;;;;5021372;28;20483;-69
2022/09/24 00:32:29;;;;;;;8.77;7.93;;;11.10;99.90;;;;;;5024054;28;20438;-69
2022/09/24 00:34:58;;;;;;;8.67;7.80;;;11.10;99.90;;;;;;5025607;28;20418;-69
2022/09/24 00:37:28;;;;;;;16.10;7.57;;;11.10;99.90;;;;;;5033032;28;20461;-69
2022/09/24 00:39:56;;;;;;;11.90;10.30;;;11.00;99.90;;;;;;5026482;28;20523;-71
2022/09/24 00:42:25;;;;;;;27.10;16.40;;;11.00;99.90;;;;;;5032232;28;20428;-70
2022/09/24 00:44:56;;;;;;;11.10;9.20;;;10.90;99.90;;;;;;5027873;28;20484;-68
2022/09/24 00:47:38;;;;;;;9.47;8.40;;;10.90;99.90;;;;;;5023806;28;20410;-70
2022/09/24 00:50:17;;;;;;;13.20;9.00;;;10.80;99.90;;;;;;5020254;28;20424;-68
2022/09/24 00:52:53;;;;;;;15.53;9.60;;;10.80;99.90;;;;;;5022388;28;20946;-70
2022/09/24 00:55:23;;;;;;;9.77;8.27;;;10.80;99.90;;;;;;5028322;28;20454;-71
2022/09/24 00:57:54;;;;;;;9.50;7.73;;;10.80;99.90;;;;;;5029777;28;20444;-68
2022/09/24 01:00:23;;;;;;;15.37;9.03;;;10.80;99.90;;;;;;5031737;28;20444;-70
2022/09/24 01:02:56;;;;;;;9.60;8.70;;;10.80;99.90;;;;;;5022780;28;20424;-69
2022/09/24 01:05:24;;;;;;;9.83;8.30;;;10.80;99.90;;;;;;5018596;28;20485;-69
2022/09/24 01:07:55;;;;;;;9.13;7.80;;;10.70;99.90;;;;;;5023481;28;20421;-69
2022/09/24 01:10:49;;;;;;;9.17;8.00;;;10.70;99.90;;;;;;5025224;28;20427;-70
2022/09/24 01:13:48;;;;;;;14.00;9.50;;;10.70;99.90;;;;;;5024941;28;20979;-70
2022/09/24 01:16:25;;;;;;;9.67;7.77;;;10.70;99.90;;;;;;4988822;28;20419;-71
2022/09/24 01:19:02;;;;;;;11.80;9.00;;;10.70;99.90;;;;;;5023712;28;20457;-69
2022/09/24 01:21:39;;;;;;;9.47;8.57;;;10.80;99.90;;;;;;5018988;28;20409;-70
2022/09/24 01:24:41;;;;;;;9.93;8.00;;;10.80;99.90;;;;;;5013867;28;20482;-69
2022/09/24 01:27:16;;;;;;;13.53;8.77;;;10.80;99.90;;;;;;5017581;28;20434;-70
2022/09/24 01:30:04;;;;;;;12.17;9.10;;;10.80;99.90;;;;;;5004796;28;20446;-70
2022/09/24 01:32:37;;;;;;;13.67;8.63;;;10.90;99.90;;;;;;5006152;28;20986;-69
2022/09/24 01:35:12;;;;;;;11.60;9.87;;;10.90;99.90;;;;;;5021957;28;21034;-69
2022/09/24 01:37:45;;;;;;;9.93;9.03;;;10.90;99.90;;;;;;5019543;28;20532;-71
2022/09/24 01:40:14;;;;;;;11.23;10.13;;;10.90;99.90;;;;;;5018371;28;20435;-69
2022/09/24 01:42:45;;;;;;;10.60;9.50;;;11.00;99.90;;;;;;5023364;28;20444;-69
2022/09/24 01:45:16;;;;;;;12.10;9.90;;;11.00;99.90;;;;;;5025136;28;20460;-70
2022/09/24 01:47:46;;;;;;;10.23;9.20;;;11.00;99.90;;;;;;5031690;28;20431;-70
2022/09/24 01:50:17;;;;;;;10.77;9.70;;;11.00;99.90;;;;;;5019809;28;20432;-70
2022/09/24 01:52:52;;;;;;;11.63;8.43;;;11.10;99.90;;;;;;5017959;28;20462;-70
2022/09/24 01:55:27;;;;;;;12.37;8.67;;;11.10;99.90;;;;;;5012649;28;20473;-70
2022/09/24 01:58:01;;;;;;;9.37;8.40;;;11.10;99.90;;;;;;5030104;28;20431;-69
2022/09/24 02:00:31;;;;;;;9.27;8.30;;;11.20;99.90;;;;;;5025498;28;20451;-69
2022/09/24 02:03:10;;;;;;;10.83;8.40;;;11.20;99.90;;;;;;5026806;28;20529;-69
2022/09/24 02:05:44;;;;;;;9.60;8.60;;;11.20;99.90;;;;;;5020886;28;20873;-68
2022/09/24 02:08:18;;;;;;;13.60;8.87;;;11.20;99.90;;;;;;5021146;28;20432;-70
2022/09/24 02:10:52;;;;;;;10.57;9.47;;;11.20;99.90;;;;;;5025614;28;20784;-69
2022/09/24 02:13:25;;;;;;;10.80;8.83;;;11.20;99.90;;;;;;5016785;28;20786;-69
2022/09/24 02:16:04;;;;;;;10.33;9.23;;;11.20;99.90;;;;;;5015444;28;20965;-69
2022/09/24 02:18:35;;;;;;;12.57;8.13;;;11.30;99.90;;;;;;5016923;28;21268;-69
2022/09/24 02:21:07;;;;;;;9.33;7.60;;;11.30;99.90;;;;;;5016777;28;20451;-69
2022/09/24 02:23:38;;;;;;;10.83;8.53;;;11.30;99.90;;;;;;5028770;28;20432;-68
2022/09/24 02:26:07;;;;;;;10.30;8.57;;;11.30;99.90;;;;;;5023087;28;21012;-71
2022/09/24 02:28:36;;;;;;;10.63;9.53;;;11.40;99.90;;;;;;5015659;28;20440;-70
2022/09/24 02:31:09;;;;;;;12.87;8.70;;;11.40;99.90;;;;;;5024061;28;20519;-70
2022/09/24 02:36:26;;;;;;;10.63;8.23;;;11.40;99.90;;;;;;5019202;28;20843;-68
2022/09/24 02:39:00;;;;;;;9.17;7.90;;;11.40;99.90;;;;;;5012845;28;20523;-72
2022/09/24 02:41:30;;;;;;;14.57;8.60;;;11.50;99.90;;;;;;5011473;28;20447;-70
2022/09/24 02:44:00;;;;;;;10.60;8.57;;;11.50;99.90;;;;;;5009470;28;20444;-71
2022/09/24 02:46:30;;;;;;;10.93;8.33;;;11.40;99.90;;;;;;5009572;28;20405;-69
2022/09/24 02:48:59;;;;;;;10.03;9.00;;;11.40;99.90;;;;;;5022159;28;20430;-69
2022/09/24 02:51:27;;;;;;;8.90;7.70;;;11.40;99.90;;;;;;5029052;28;20459;-69
2022/09/24 02:53:56;;;;;;;8.30;7.60;;;11.40;99.90;;;;;;5022004;28;20937;-69
2022/09/24 02:56:24;;;;;;;9.20;7.73;;;11.50;99.90;;;;;;5022826;28;20470;-71
2022/09/24 02:58:53;;;;;;;9.70;7.70;;;11.60;99.90;;;;;;5028771;28;20497;-70
2022/09/24 03:01:23;;;;;;;10.23;9.10;;;11.50;99.90;;;;;;5002824;28;20431;-71
2022/09/24 03:03:54;;;;;;;9.00;8.10;;;11.40;99.90;;;;;;5028792;28;20957;-71
2022/09/24 03:06:23;;;;;;;8.93;8.10;;;11.40;99.90;;;;;;5022230;28;20864;-70
2022/09/24 03:08:53;;;;;;;10.27;9.27;;;11.30;99.90;;;;;;5022042;28;20455;-71
2022/09/24 03:11:22;;;;;;;9.07;8.17;;;11.30;99.90;;;;;;5022663;28;20787;-71
2022/09/24 03:13:51;;;;;;;17.67;9.10;;;11.30;99.90;;;;;;5013590;28;20524;-70
2022/09/24 03:16:20;;;;;;;9.73;8.73;;;11.30;99.90;;;;;;5016160;28;20399;-69
2022/09/24 03:18:49;;;;;;;8.73;8.00;;;11.30;99.90;;;;;;5023731;28;20410;-69
2022/09/24 03:21:21;;;;;;;17.53;8.47;;;11.20;99.90;;;;;;5029174;28;20982;-69
2022/09/24 03:23:50;;;;;;;11.50;9.27;;;11.20;99.90;;;;;;5028361;28;20407;-71
2022/09/24 03:26:18;;;;;;;8.07;7.33;;;11.30;99.90;;;;;;5017475;28;20407;-70
2022/09/24 03:28:47;;;;;;;10.40;8.87;;;11.30;99.90;;;;;;5028808;28;20428;-69
2022/09/24 03:31:15;;;;;;;11.00;8.63;;;11.30;99.90;;;;;;5015410;28;20424;-70
2022/09/24 03:33:46;;;;;;;13.90;8.63;;;11.30;99.90;;;;;;5021040;28;20442;-70
2022/09/24 03:36:18;;;;;;;10.90;8.33;;;11.30;99.90;;;;;;5017133;28;20423;-68
2022/09/24 03:38:49;;;;;;;9.53;8.53;;;11.20;99.90;;;;;;5010742;28;20930;-70
2022/09/24 03:41:18;;;;;;;8.93;8.13;;;11.20;99.90;;;;;;5021921;28;20429;-71
2022/09/24 03:43:47;;;;;;;10.60;8.83;;;11.20;99.90;;;;;;5032214;28;20436;-71
2022/09/24 03:46:16;;;;;;;9.47;8.47;;;11.20;99.90;;;;;;5024113;28;20396;-70
2022/09/24 03:48:46;;;;;;;10.43;9.53;;;11.20;99.90;;;;;;5019312;28;20430;-69
2022/09/24 03:51:18;;;;;;;9.80;8.80;;;11.30;99.90;;;;;;5001535;28;20932;-69
2022/09/24 03:53:49;;;;;;;8.27;7.47;;;11.30;99.90;;;;;;5019713;28;20440;-69
2022/09/24 03:56:17;;;;;;;10.60;9.00;;;11.40;99.90;;;;;;5029748;28;20644;-70
2022/09/24 03:58:47;;;;;;;8.87;8.07;;;11.30;99.90;;;;;;5007429;28;20501;-70
2022/09/24 04:01:19;;;;;;;9.93;8.63;;;11.30;99.90;;;;;;5025834;28;20441;-68
2022/09/24 04:03:50;;;;;;;9.10;8.20;;;11.30;99.90;;;;;;5028897;28;20565;-70
2022/09/24 04:06:19;;;;;;;9.70;8.20;;;11.20;99.90;;;;;;5032922;28;20403;-68
2022/09/24 04:08:55;;;;;;;10.13;9.10;;;11.20;99.90;;;;;;5021274;28;20466;-69
2022/09/24 04:11:24;;;;;;;10.90;9.90;;;11.20;99.90;;;;;;5020475;28;20482;-69
2022/09/24 04:13:53;;;;;;;9.97;8.43;;;11.20;99.90;;;;;;5036716;28;20432;-70
2022/09/24 04:16:22;;;;;;;9.83;8.60;;;11.10;99.90;;;;;;5038063;28;20446;-69
2022/09/24 04:18:50;;;;;;;9.37;8.47;;;11.10;99.90;;;;;;5018525;28;20496;-70
2022/09/24 04:21:20;;;;;;;13.63;9.97;;;11.10;99.90;;;;;;5006554;28;20449;-70
2022/09/24 04:23:48;;;;;;;10.07;8.97;;;11.10;99.90;;;;;;5030819;28;20428;-69
2022/09/24 04:26:19;;;;;;;9.50;8.50;;;11.10;99.90;;;;;;5026826;28;20436;-70
2022/09/24 04:28:49;;;;;;;10.73;9.13;;;11.10;99.90;;;;;;5026030;28;20436;-70
2022/09/24 04:31:18;;;;;;;9.63;8.10;;;11.00;99.90;;;;;;5026610;28;20533;-70
2022/09/24 04:33:47;;;;;;;8.87;7.97;;;11.10;99.90;;;;;;5030687;28;20424;-72
2022/09/24 04:36:16;;;;;;;12.97;7.90;;;11.10;99.90;;;;;;5018134;28;20703;-72
2022/09/24 04:38:45;;;;;;;9.53;8.63;;;11.10;99.90;;;;;;5028411;28;20429;-69
2022/09/24 04:41:15;;;;;;;13.57;9.23;;;11.10;99.90;;;;;;5029595;28;20882;-71
2022/09/24 04:43:46;;;;;;;11.33;8.33;;;11.10;99.90;;;;;;5028651;28;20451;-71
2022/09/24 04:46:17;;;;;;;9.93;8.93;;;11.10;99.90;;;;;;5012014;28;20787;-69
2022/09/24 04:48:46;;;;;;;10.73;9.00;;;11.00;99.90;;;;;;5019571;28;20463;-71
2022/09/24 04:51:16;;;;;;;12.63;8.80;;;11.00;99.90;;;;;;5018149;28;20437;-70
2022/09/24 04:53:46;;;;;;;11.77;8.60;;;11.00;99.90;;;;;;5024051;28;21146;-69
2022/09/24 04:56:15;;;;;;;15.43;9.77;;;11.00;99.90;;;;;;5025558;28;20751;-71
2022/09/24 04:58:45;;;;;;;13.23;9.40;;;11.00;99.90;;;;;;5031014;28;20432;-70
2022/09/24 05:01:14;;;;;;;9.70;8.10;;;11.00;99.90;;;;;;5013283;28;20453;-70
2022/09/24 05:03:44;;;;;;;11.33;9.00;;;11.00;99.90;;;;;;5023859;28;20440;-71
2022/09/24 05:06:13;;;;;;;12.30;11.00;;;11.10;99.90;;;;;;5016524;28;20487;-70
2022/09/24 05:08:42;;;;;;;13.90;9.23;;;11.10;99.90;;;;;;5024430;28;20919;-70
2022/09/24 05:11:11;;;;;;;12.90;10.20;;;11.10;99.90;;;;;;5027843;28;20482;-70
2022/09/24 05:13:40;;;;;;;10.33;9.20;;;11.10;99.90;;;;;;5023043;28;20464;-71
2022/09/24 05:16:10;;;;;;;9.57;8.67;;;11.20;99.90;;;;;;5025185;28;20467;-70
2022/09/24 05:19:05;;;;;;;10.00;9.00;;;11.20;99.90;;;;;;5030860;28;20462;-72
2022/09/24 05:21:34;;;;;;;10.17;8.87;;;11.20;99.90;;;;;;5031371;28;20725;-71
2022/09/24 05:24:03;;;;;;;12.10;10.47;;;11.20;99.90;;;;;;5030247;28;20403;-71
2022/09/24 05:29:17;;;;;;;10.83;9.50;;;11.20;99.90;;;;;;5001741;28;21131;-69
2022/09/24 05:31:47;;;;;;;12.20;9.30;;;11.10;99.90;;;;;;5016965;28;20429;-68
2022/09/24 05:34:16;;;;;;;9.67;8.77;;;11.10;99.90;;;;;;5015817;28;20463;-71
2022/09/24 05:36:45;;;;;;;10.00;9.00;;;11.00;99.90;;;;;;5023689;28;20460;-72
2022/09/24 05:39:14;;;;;;;9.40;8.40;;;11.00;99.90;;;;;;5023843;28;20628;-69
2022/09/24 05:41:42;;;;;;;10.60;9.10;;;11.00;99.90;;;;;;5010919;28;20428;-71
2022/09/24 05:44:12;;;;;;;9.53;8.63;;;11.10;99.90;;;;;;4997650;28;20903;-69
2022/09/24 05:46:40;;;;;;;12.83;9.50;;;11.10;99.90;;;;;;5015823;28;20449;-70
2022/09/24 05:49:11;;;;;;;8.67;7.87;;;11.20;99.90;;;;;;5012742;28;20445;-69
2022/09/24 05:51:39;;;;;;;10.37;8.20;;;11.20;99.90;;;;;;5010286;28;20483;-71
2022/09/24 05:54:08;;;;;;;9.10;8.10;;;11.20;99.90;;;;;;5010138;28;20870;-70
2022/09/24 05:56:36;;;;;;;9.33;8.50;;;11.30;99.90;;;;;;5014863;28;20461;-69
2022/09/24 05:59:06;;;;;;;9.93;8.90;;;11.30;99.90;;;;;;5012756;28;20516;-69
2022/09/24 06:01:34;;;;;;;9.97;8.97;;;11.40;99.90;;;;;;5020890;28;20433;-70
2022/09/24 06:04:03;;;;;;;9.00;8.10;;;11.40;99.90;;;;;;5011651;28;20425;-71
2022/09/24 06:06:38;;;;;;;13.83;8.57;;;11.40;99.90;;;;;;5010902;28;20777;-69
2022/09/24 06:09:08;;;;;;;9.80;8.90;;;11.40;99.90;;;;;;4989921;28;20521;-70
2022/09/24 06:11:37;;;;;;;11.40;8.90;;;11.40;99.90;;;;;;5016066;28;20815;-70
2022/09/24 06:14:08;;;;;;;10.17;9.07;;;11.50;99.90;;;;;;5010273;28;20456;-71
2022/09/24 06:16:37;;;;;;;10.77;8.80;;;11.40;99.90;;;;;;5011304;28;20495;-70
2022/09/24 06:19:06;;;;;;;11.63;9.53;;;11.50;99.90;;;;;;5010276;28;20429;-70
2022/09/24 06:21:34;;;;;;;8.60;7.80;;;11.50;99.90;;;;;;5011265;28;20775;-69
2022/09/24 06:24:05;;;;;;;10.50;9.40;;;11.50;99.90;;;;;;5010974;28;20429;-70
2022/09/24 06:26:35;;;;;;;10.00;8.97;;;11.60;99.90;;;;;;5007753;28;20838;-70
2022/09/24 06:29:03;;;;;;;10.13;8.23;;;11.60;99.90;;;;;;5013116;28;20568;-69
2022/09/24 06:31:33;;;;;;;9.50;8.70;;;11.60;99.90;;;;;;5023747;28;20935;-70
2022/09/24 06:34:02;;;;;;;16.77;10.20;;;11.70;99.90;;;;;;5014397;28;20482;-70
2022/09/24 06:36:31;;;;;;;10.43;8.87;;;11.70;99.90;;;;;;5011516;28;20527;-70
2022/09/24 06:39:00;;;;;;;13.17;10.87;;;11.70;99.90;;;;;;5012310;28;20574;-70
2022/09/24 06:41:30;;;;;;;12.60;9.20;;;11.90;99.90;;;;;;5016704;28;20429;-70
2022/09/24 06:43:59;;;;;;;11.63;8.77;;;12.10;99.90;;;;;;5008665;28;20407;-69
2022/09/24 06:46:28;;;;;;;10.13;9.10;;;12.20;99.90;;;;;;5015190;28;20425;-69
2022/09/24 06:48:57;;;;;;;10.90;8.43;;;12.30;99.90;;;;;;5009009;28;20483;-69
2022/09/24 06:51:25;;;;;;;10.47;8.47;;;12.50;99.90;;;;;;5006599;28;20440;-69
2022/09/24 06:53:57;;;;;;;9.77;8.37;;;12.50;99.90;;;;;;5017978;28;20515;-72
2022/09/24 06:56:26;;;;;;;14.57;9.40;;;12.40;99.90;;;;;;5010311;28;20501;-68
2022/09/24 06:58:56;;;;;;;8.93;8.00;;;12.50;99.90;;;;;;5007596;28;20442;-71
2022/09/24 07:01:25;;;;;;;10.93;9.83;;;12.60;99.90;;;;;;5019400;28;20429;-70
2022/09/24 07:03:54;;;;;;;10.97;8.10;;;12.50;99.90;;;;;;5023108;28;20780;-69
2022/09/24 07:06:23;;;;;;;10.37;9.47;;;12.60;99.90;;;;;;5023762;28;20677;-67
2022/09/24 07:08:52;;;;;;;12.10;8.30;;;12.60;99.90;;;;;;5001599;28;20485;-70
2022/09/24 07:11:22;;;;;;;9.30;8.40;;;12.70;98.40;;;;;;5015394;28;20402;-69
2022/09/24 07:13:52;;;;;;;18.17;9.00;;;12.70;96.00;;;;;;5022739;28;20690;-69
2022/09/24 07:16:22;;;;;;;11.57;9.83;;;12.70;96.30;;;;;;5022853;28;20442;-68
2022/09/24 07:18:51;;;;;;;9.80;8.80;;;12.70;94.90;;;;;;5027567;28;20413;-68
2022/09/24 07:21:20;;;;;;;8.70;7.90;;;12.70;93.90;;;;;;5011143;28;20440;-70
2022/09/24 07:23:48;;;;;;;10.50;9.50;;;12.80;87.60;;;;;;5026733;28;20406;-69
2022/09/24 07:26:20;;;;;;;12.90;8.93;;;12.90;78.40;;;;;;5035307;28;20434;-70
2022/09/24 07:29:23;;;;;;;11.43;9.60;;;12.80;87.70;;;;;;5011691;28;20558;-70
2022/09/24 07:31:53;;;;;;;8.93;8.03;;;12.80;94.20;;;;;;5027298;28;20406;-69
2022/09/24 07:34:22;;;;;;;9.40;8.50;;;13.20;82.00;;;;;;5030211;28;20654;-68
2022/09/24 07:37:21;;;;;;;9.37;8.30;;;13.30;54.80;;;;;;5007742;28;20467;-70
2022/09/24 07:40:15;;;;;;;10.83;9.73;;;13.40;55.40;;;;;;5021910;28;20556;-70
2022/09/24 07:42:47;;;;;;;10.40;8.07;;;13.60;45.80;;;;;;5033204;28;20934;-70
2022/09/24 07:45:16;;;;;;;9.33;8.40;;;13.60;40.80;;;;;;5022208;28;20771;-69
2022/09/24 07:48:05;;;;;;;10.50;9.07;;;13.60;36.60;;;;;;5033589;28;20406;-68
2022/09/24 07:51:13;;;;;;;9.87;8.90;;;13.60;38.20;;;;;;5009645;28;20443;-70
2022/09/24 07:53:41;;;;;;;9.90;8.90;;;13.60;39.60;;;;;;5029094;28;20436;-69
2022/09/24 07:56:10;;;;;;;12.50;9.27;;;13.70;37.30;;;;;;5015049;28;20427;-69
2022/09/24 07:58:39;;;;;;;11.00;9.70;;;13.80;33.70;;;;;;5019196;28;20464;-70
2022/09/24 08:01:07;;;;;;;11.23;10.00;;;13.90;33.40;;;;;;5011600;28;20408;-69
2022/09/24 08:03:39;;;;;;;10.43;8.93;;;13.80;32.40;;;;;;5008745;28;20439;-69
2022/09/24 08:06:34;;;;;;;11.90;9.30;;;13.80;32.20;;;;;;5008156;28;20467;-67
2022/09/24 08:09:10;;;;;;;9.50;8.57;;;13.90;38.90;;;;;;5022456;28;20512;-68
2022/09/24 08:11:39;;;;;;;10.33;7.90;;;14.00;27.60;;;;;;5015559;28;20434;-68
2022/09/24 08:14:08;;;;;;;10.00;8.90;;;13.90;29.10;;;;;;5017754;28;20548;-70
2022/09/24 08:16:39;;;;;;;10.50;8.93;;;14.00;26.70;;;;;;5004884;28;21050;-68
2022/09/24 08:19:12;;;;;;;11.43;10.10;;;14.10;26.40;;;;;;5031211;28;20520;-68
2022/09/24 08:21:41;;;;;;;10.37;9.33;;;14.20;24.10;;;;;;5029092;28;20768;-69
2022/09/24 08:24:10;;;;;;;9.17;8.10;;;14.20;23.60;;;;;;5023127;28;20477;-70
2022/09/24 08:26:39;;;;;;;16.03;10.10;;;14.30;24.50;;;;;;5020352;28;20836;-68
2022/09/24 08:29:08;;;;;;;9.47;8.57;;;14.40;21.10;;;;;;5031918;28;20453;-68
2022/09/24 08:31:37;;;;;;;11.43;8.40;;;14.50;19.40;;;;;;5031977;28;20407;-68
2022/09/24 08:34:05;;;;;;;12.33;9.07;;;14.40;20.70;;;;;;5030615;28;20994;-69
2022/09/24 08:36:36;;;;;;;16.20;9.03;;;14.40;20.00;;;;;;5025106;28;20441;-70
2022/09/24 08:39:12;;;;;;;11.93;8.40;;;14.30;18.00;;;;;;5024996;28;20438;-70
2022/09/24 08:41:56;;;;;;;13.10;10.87;;;14.40;17.20;;;;;;5024826;28;20565;-69
2022/09/24 08:47:26;;;;;;;12.70;11.03;;;14.60;15.50;;;;;;5025299;28;20453;-69
2022/09/24 08:50:02;;;;;;;11.30;10.20;;;14.70;16.00;;;;;;5007134;28;20422;-69
2022/09/24 08:52:43;;;;;;;10.90;9.80;;;14.90;14.50;;;;;;5020490;28;20426;-70
2022/09/24 08:55:20;;;;;;;10.47;9.37;;;14.90;12.80;;;;;;5021049;28;20554;-69
2022/09/24 08:57:57;;;;;;;10.90;9.53;;;15.00;10.90;;;;;;5005830;28;20456;-68
2022/09/24 09:00:29;;;;;;;13.67;10.93;;;15.10;10.90;;;;;;5017489;28;20508;-70
2022/09/24 09:03:05;;;;;;;11.80;10.13;;;15.00;9.70;;;;;;5014922;28;20486;-70
2022/09/24 09:05:51;;;;;;;12.80;10.27;;;15.10;7.20;;;;;;5024556;28;20442;-71
2022/09/24 09:08:29;;;;;;;10.97;9.87;;;15.10;7.30;;;;;;5012410;28;20459;-69
2022/09/24 09:11:22;;;;;;;16.60;10.40;;;15.40;6.10;;;;;;5020569;28;20439;-71
2022/09/24 09:13:56;;;;;;;11.60;10.40;;;15.50;2.00;;;;;;5027787;28;20532;-70
2022/09/24 09:16:29;;;;;;;10.33;8.67;;;15.50;1.00;;;;;;5029577;28;20428;-69
2022/09/24 09:19:05;;;;;;;10.40;9.40;;;15.70;1.00;;;;;;5016460;28;20431;-68
2022/09/24 09:21:40;;;;;;;10.37;9.43;;;15.80;1.00;;;;;;5013096;28;20437;-69
2022/09/24 09:24:18;;;;;;;12.20;10.20;;;15.80;1.00;;;;;;5012790;28;20430;-70
2022/09/24 09:26:50;;;;;;;13.30;11.50;;;16.00;1.00;;;;;;5039992;28;20410;-70
2022/09/24 09:29:19;;;;;;;14.83;10.97;;;16.10;1.00;;;;;;5004511;28;20658;-69
2022/09/24 09:32:00;;;;;;;11.33;10.17;;;16.10;1.00;;;;;;5014448;28;20418;-69
2022/09/24 09:34:40;;;;;;;12.40;10.07;;;16.50;1.00;;;;;;5001183;28;20439;-69
2022/09/24 09:37:20;;;;;;;12.87;10.57;;;16.70;1.00;;;;;;5011799;28;20435;-69
2022/09/24 09:40:04;;;;;;;11.27;10.13;;;16.90;1.00;;;;;;5024273;28;20945;-69
2022/09/24 09:42:35;;;;;;;10.70;9.67;;;16.90;1.00;;;;;;5014066;28;20410;-69
2022/09/24 09:45:18;;;;;;;11.13;9.43;;;16.80;1.00;;;;;;5016701;28;20425;-69
2022/09/24 09:47:56;;;;;;;10.40;9.40;;;16.80;1.00;;;;;;5017454;28;20985;-69
2022/09/24 09:50:28;;;;;;;11.10;10.10;;;16.70;1.00;;;;;;5017971;28;20527;-71
2022/09/24 09:52:57;;;;;;;11.27;10.27;;;16.80;1.00;;;;;;5024287;28;20906;-69
2022/09/24 09:55:33;;;;;;;9.60;8.50;;;16.90;1.00;;;;;;5018274;28;20445;-71
2022/09/24 09:58:19;;;;;;;14.80;10.57;;;17.00;1.00;;;;;;5010283;28;20464;-70
2022/09/24 10:00:50;;;;;;;10.47;9.30;;;17.10;1.00;;;;;;5016760;28;20418;-70
2022/09/24 10:03:32;;;;;;;17.00;10.83;;;17.20;1.00;;;;;;5014614;28;20913;-69
2022/09/24 10:06:05;;;;;;;14.80;10.87;;;17.20;1.00;;;;;;5009909;28;20470;-68
2022/09/24 10:08:34;;;;;;;11.33;9.27;;;17.10;1.00;;;;;;5018078;28;20391;-70
2022/09/24 10:11:18;;;;;;;9.17;8.27;;;17.10;1.00;;;;;;5010265;28;21074;-70
2022/09/24 10:14:03;;;;;;;9.30;7.87;;;16.90;1.00;;;;;;5021637;28;20914;-69
2022/09/24 10:16:39;;;;;;;11.90;9.47;;;16.90;1.00;;;;;;4993205;28;20432;-71
2022/09/24 10:19:24;;;;;;;12.00;8.67;;;16.90;1.00;;;;;;4994183;28;20505;-69
2022/09/24 10:21:57;;;;;;;10.00;9.00;;;16.70;1.00;;;;;;5021628;28;20495;-70
2022/09/24 10:24:28;;;;;;;11.37;7.97;;;16.90;1.00;;;;;;5013267;28;20517;-69
2022/09/24 10:26:59;;;;;;;9.00;8.10;;;16.90;1.00;;;;;;5019498;28;21103;-69
2022/09/24 10:32:22;;;;;;;8.17;7.37;;;16.90;1.00;;;;;;5018740;28;20431;-70
2022/09/24 10:34:59;;;;;;;11.27;9.20;;;16.90;1.00;;;;;;5022483;28;20493;-70
2022/09/24 10:37:29;;;;;;;9.30;8.33;;;16.80;1.00;;;;;;5017730;28;20443;-69
2022/09/24 10:39:59;;;;;;;10.73;8.90;;;16.70;1.00;;;;;;5011002;28;20403;-69
2022/09/24 10:42:30;;;;;;;8.87;7.97;;;16.60;1.00;;;;;;5019885;28;20438;-71
2022/09/24 10:45:01;;;;;;;10.73;8.20;;;16.70;1.00;;;;;;5030144;28;20469;-71
2022/09/24 10:47:40;;;;;;;15.70;8.13;;;16.70;1.00;;;;;;5023204;28;20417;-70
2022/09/24 10:50:24;;;;;;;11.97;10.30;;;16.70;1.00;;;;;;5022431;28;20486;-72
2022/09/24 10:52:57;;;;;;;11.03;9.03;;;16.60;1.00;;;;;;5029475;28;20473;-71
2022/09/24 10:55:41;;;;;;;10.70;8.43;;;16.80;1.00;;;;;;5030372;28;20534;-69
2022/09/24 10:58:24;;;;;;;9.57;7.90;;;16.60;1.00;;;;;;5032057;28;20890;-71
2022/09/24 11:01:04;;;;;;;10.40;7.83;;;16.80;1.00;;;;;;5026774;28;20955;-70
2022/09/24 11:04:11;;;;;;;9.07;8.10;;;16.70;1.00;;;;;;5024603;28;20433;-69
2022/09/24 11:06:50;;;;;;;9.10;8.20;;;16.70;1.00;;;;;;5013590;28;20832;-71
2022/09/24 11:09:28;;;;;;;9.67;8.67;;;16.80;1.00;;;;;;5013658;28;20414;-71
2022/09/24 11:12:05;;;;;;;9.47;8.47;;;16.80;1.00;;;;;;4998634;28;20450;-69
2022/09/24 11:14:50;;;;;;;8.73;7.53;;;16.70;1.00;;;;;;5028722;28;20444;-70
2022/09/24 11:17:33;;;;;;;10.47;9.10;;;16.70;1.00;;;;;;5013162;28;20855;-70
2022/09/24 11:20:18;;;;;;;20.10;12.20;;;16.80;1.00;;;;;;5028094;28;20469;-71
2022/09/24 11:23:02;;;;;;;9.37;8.37;;;16.90;1.00;;;;;;5019294;28;20819;-70
2022/09/24 11:25:39;;;;;;;9.93;8.60;;;17.10;1.00;;;;;;5033357;28;20663;-71
2022/09/24 11:28:23;;;;;;;7.43;6.73;;;17.40;1.00;;;;;;5021425;28;20410;-71
2022/09/24 11:31:03;;;;;;;8.30;7.50;;;17.30;1.00;;;;;;5033130;28;20452;-69
2022/09/24 11:33:49;;;;;;;8.17;6.43;;;17.10;1.00;;;;;;5022226;28;20436;-70
2022/09/24 11:36:32;;;;;;;10.03;7.90;;;17.00;1.00;;;;;;5013070;28;20396;-72
2022/09/24 11:39:21;;;;;;;10.83;7.37;;;17.00;1.00;;;;;;5021524;28;20462;-71
2022/09/24 11:41:59;;;;;;;12.70;7.77;;;17.20;1.00;;;;;;5056065;22;20492;-68
2022/09/24 11:44:56;;;;;;;7.47;6.67;;;17.30;1.00;;;;;;5044943;28;20885;-69
2022/09/24 11:47:43;;;;;;;7.97;7.17;;;17.50;1.00;;;;;;5040835;28;20440;-68
2022/09/24 11:50:26;;;;;;;7.10;6.40;;;17.60;1.00;;;;;;5041455;28;20423;-68
2022/09/24 11:53:00;;;;;;;8.00;6.47;;;17.60;1.00;;;;;;5049119;28;20453;-67
2022/09/24 11:55:34;;;;;;;7.25;6.30;;;17.50;1.00;;;;;;5058766;22;20447;-69
2022/09/24 11:58:12;;;;;;;7.20;5.93;;;17.70;1.00;;;;;;5012493;28;20457;-69
2022/09/24 12:00:46;;;;;;;7.13;6.30;;;17.70;1.00;;;;;;5012846;28;20460;-69
2022/09/24 12:03:21;;;;;;;8.00;6.67;;;17.70;1.00;;;;;;4998049;28;20972;-69
2022/09/24 12:06:00;;;;;;;6.90;6.13;;;17.90;1.00;;;;;;5006166;28;20464;-69
2022/09/24 12:08:35;;;;;;;7.70;6.30;;;18.10;1.00;;;;;;5000223;28;20467;-68
2022/09/24 12:11:09;;;;;;;6.77;6.20;;;18.00;1.00;;;;;;4980687;28;20438;-69
2022/09/24 12:13:42;;;;;;;7.93;6.77;;;18.00;1.00;;;;;;4989608;28;20425;-69
2022/09/24 12:16:16;;;;;;;12.87;7.67;;;17.80;1.00;;;;;;5009958;28;20429;-70
2022/09/24 12:18:52;;;;;;;10.33;7.00;;;17.60;1.00;;;;;;4994616;28;20466;-70
2022/09/24 12:21:26;;;;;;;7.80;7.00;;;17.90;1.00;;;;;;4975819;28;20455;-70
2022/09/24 12:24:08;;;;;;;7.97;7.30;;;18.30;1.00;;;;;;4981318;28;20442;-69
2022/09/24 12:26:40;;;;;;;9.10;8.20;;;18.40;1.00;;;;;;4986093;28;20453;-69
2022/09/24 12:35:18;;;;;;;8.13;7.30;;;18.10;1.00;;;;;;4989590;28;20452;-69
2022/09/24 12:37:55;;;;;;;9.47;7.80;;;18.00;1.00;;;;;;4980707;28;20451;-68
2022/09/24 12:40:51;;;;;;;10.27;6.40;;;17.70;1.00;;;;;;4993434;28;20535;-69
2022/09/24 12:43:25;;;;;;;11.13;8.10;;;17.60;1.00;;;;;;4978872;28;20489;-70
2022/09/24 12:45:58;;;;;;;10.43;8.10;;;17.60;1.00;;;;;;4991942;28;20572;-69
2022/09/24 12:48:29;;;;;;;9.17;8.30;;;17.70;1.00;;;;;;4974957;28;20414;-70
2022/09/24 12:51:02;;;;;;;10.73;7.07;;;17.60;1.00;;;;;;4985112;28;20415;-68
2022/09/24 12:53:36;;;;;;;7.67;6.97;;;17.60;1.00;;;;;;4991823;28;20791;-69
2022/09/24 12:56:06;;;;;;;10.57;9.50;;;17.60;1.00;;;;;;4972375;28;20569;-69
2022/09/24 12:58:39;;;;;;;9.20;8.40;;;17.70;1.00;;;;;;4962128;28;20519;-69
2022/09/24 13:01:13;;;;;;;11.97;10.10;;;17.80;1.00;;;;;;4991357;28;20979;-68
2022/09/24 13:03:43;;;;;;;9.87;8.83;;;17.90;1.00;;;;;;5008386;28;20539;-66
2022/09/24 13:06:32;;;;;;;8.87;8.00;;;18.00;1.00;;;;;;4983505;28;20413;-72
2022/09/24 13:09:01;;;;;;;14.23;9.07;;;18.00;1.00;;;;;;4996797;28;20415;-68
2022/09/24 13:11:35;;;;;;;8.63;7.63;;;17.90;1.00;;;;;;4980187;28;20725;-68
2022/09/24 13:14:20;;;;;;;12.53;10.23;;;18.10;1.00;;;;;;4995890;28;20419;-68
2022/09/24 13:16:52;;;;;;;14.23;9.10;;;18.30;1.00;;;;;;4975266;28;20875;-70
2022/09/24 13:19:30;;;;;;;9.40;7.90;;;18.30;1.00;;;;;;4977809;28;20989;-68
2022/09/24 13:22:01;;;;;;;8.07;7.27;;;18.40;1.00;;;;;;5004136;28;20583;-69
2022/09/24 13:24:35;;;;;;;9.83;8.07;;;18.60;1.00;;;;;;4991612;28;20434;-70
2022/09/24 13:27:26;;;;;;;11.53;9.23;;;18.60;1.00;;;;;;4970005;28;20453;-68
2022/09/24 13:30:05;;;;;;;9.37;8.57;;;18.30;1.00;;;;;;5011288;28;20850;-70
2022/09/24 13:32:39;;;;;;;9.43;8.53;;;18.10;1.00;;;;;;5000054;28;20456;-70
2022/09/24 13:35:20;;;;;;;8.40;7.70;;;18.20;1.00;;;;;;5006438;28;20450;-68
2022/09/24 13:37:57;;;;;;;9.70;8.43;;;18.00;1.00;;;;;;5010766;28;20399;-68